Time;durP1;ratioP1;P1;durP2;ratioP2;P2;SDS_P1;SDS_P2;PMS_P1;PMS_P2;Temp;Humidity;BMP_temperature;BMP_pressure;BME280_temperature;BME280_humidity;BME280_pressure;Samples;Min_cycle;Max_cycle;Signal;HPM_P1;HPM_P2
2023/03/03 00:01:31;;;;;;;19.02;10.50;;;8.60;70.00;;;;;;7400309;19;19919;-73
2023/03/03 00:03:57;;;;;;;17.48;10.48;;;8.60;70.30;;;;;;7398751;19;19917;-73
2023/03/03 00:06:25;;;;;;;18.10;10.38;;;8.50;70.80;;;;;;7396863;19;19945;-72
2023/03/03 00:08:51;;;;;;;17.65;10.43;;;8.50;71.70;;;;;;7397772;19;19921;-74
2023/03/03 00:11:19;;;;;;;18.48;9.45;;;8.50;71.90;;;;;;7396143;19;19926;-73
2023/03/03 00:13:54;;;;;;;16.50;10.50;;;8.50;71.70;;;;;;7403137;19;19946;-73
2023/03/03 00:16:34;;;;;;;21.00;10.52;;;8.50;71.40;;;;;;7395296;19;19923;-73
2023/03/03 00:19:00;;;;;;;16.98;10.27;;;8.40;70.10;;;;;;7387981;19;19915;-72
2023/03/03 00:21:32;;;;;;;16.38;9.18;;;8.40;71.00;;;;;;7391992;19;19918;-72
2023/03/03 00:24:13;;;;;;;14.82;9.23;;;8.40;71.00;;;;;;7399037;19;19926;-72
2023/03/03 00:26:41;;;;;;;19.52;9.93;;;8.40;70.10;;;;;;7399924;19;19929;-73
2023/03/03 00:29:27;;;;;;;17.30;10.45;;;8.30;70.30;;;;;;7399567;19;19923;-72
2023/03/03 00:31:58;;;;;;;16.65;9.73;;;8.30;70.10;;;;;;7400463;19;19918;-72
2023/03/03 00:34:26;;;;;;;18.55;10.02;;;8.30;69.90;;;;;;7401570;19;19937;-73
2023/03/03 00:36:58;;;;;;;15.55;9.43;;;8.20;70.00;;;;;;7378597;19;20779;-72
2023/03/03 00:39:36;;;;;;;18.23;9.55;;;8.10;70.40;;;;;;7368458;19;19911;-73
2023/03/03 00:42:14;;;;;;;19.90;9.57;;;8.10;71.10;;;;;;7398620;19;19918;-71
2023/03/03 00:44:56;;;;;;;16.50;9.13;;;8.10;71.80;;;;;;7403194;19;19918;-72
2023/03/03 00:47:37;;;;;;;20.00;9.77;;;8.10;72.00;;;;;;7400890;19;20359;-73
2023/03/03 00:50:05;;;;;;;18.73;9.30;;;8.10;71.10;;;;;;7406783;19;20248;-72
2023/03/03 00:52:35;;;;;;;15.98;9.55;;;8.10;70.50;;;;;;7405296;19;19918;-72
2023/03/03 00:55:03;;;;;;;17.90;10.05;;;8.10;70.10;;;;;;7405507;19;19916;-72
2023/03/03 00:57:29;;;;;;;16.13;8.95;;;8.00;68.60;;;;;;7405851;19;19918;-72
2023/03/03 00:59:55;;;;;;;16.08;8.88;;;8.10;68.30;;;;;;7408384;19;20247;-72
2023/03/03 01:02:21;;;;;;;19.02;8.45;;;8.20;67.50;;;;;;7403471;19;19939;-71
2023/03/03 01:04:51;;;;;;;17.20;9.10;;;8.20;67.70;;;;;;7406832;19;20367;-72
2023/03/03 01:07:17;;;;;;;16.88;8.52;;;8.20;67.50;;;;;;7383836;19;20289;-73
2023/03/03 01:09:43;;;;;;;16.08;8.35;;;8.20;67.80;;;;;;7407195;19;20649;-72
2023/03/03 01:12:10;;;;;;;15.40;8.82;;;8.30;67.80;;;;;;7407360;19;19918;-73
2023/03/03 01:14:37;;;;;;;14.88;7.90;;;8.20;68.00;;;;;;7407082;19;19914;-71
2023/03/03 01:17:03;;;;;;;15.63;7.90;;;8.30;68.40;;;;;;7407415;19;19949;-71
2023/03/03 01:19:29;;;;;;;15.38;8.73;;;8.20;68.70;;;;;;7407935;19;19922;-71
2023/03/03 01:21:55;;;;;;;17.75;8.18;;;8.20;68.90;;;;;;7407824;19;19917;-72
2023/03/03 01:24:21;;;;;;;18.15;8.48;;;8.30;69.00;;;;;;7403920;19;19974;-71
2023/03/03 01:26:48;;;;;;;18.45;8.40;;;8.20;68.90;;;;;;7408085;19;20311;-72
2023/03/03 01:29:13;;;;;;;13.45;7.28;;;8.20;68.90;;;;;;7407183;19;19928;-72
2023/03/03 01:31:39;;;;;;;18.67;9.55;;;8.20;68.70;;;;;;7409283;19;19907;-72
2023/03/03 01:34:06;;;;;;;14.43;8.18;;;8.20;68.70;;;;;;7407133;19;19914;-71
2023/03/03 01:36:32;;;;;;;13.45;7.53;;;8.20;68.70;;;;;;7406934;19;20289;-72
2023/03/03 01:38:58;;;;;;;14.30;8.35;;;8.10;68.60;;;;;;7407142;19;19961;-71
2023/03/03 01:41:29;;;;;;;13.35;7.55;;;8.10;68.50;;;;;;7407146;19;19923;-72
2023/03/03 01:43:55;;;;;;;16.55;8.88;;;8.00;68.90;;;;;;7406349;19;19911;-71
2023/03/03 01:46:56;;;;;;;18.10;8.60;;;8.00;69.00;;;;;;7405755;19;20007;-72
2023/03/03 01:49:45;;;;;;;15.57;7.70;;;7.90;69.00;;;;;;7403881;19;20003;-72
2023/03/03 01:52:19;;;;;;;16.27;7.82;;;8.00;69.10;;;;;;7404580;19;19943;-71
2023/03/03 01:54:50;;;;;;;14.00;7.35;;;7.90;69.30;;;;;;7406737;19;20454;-72
2023/03/03 01:57:28;;;;;;;15.50;8.38;;;7.90;69.50;;;;;;7402540;19;20264;-71
2023/03/03 01:59:56;;;;;;;14.88;7.43;;;7.90;69.60;;;;;;7405025;19;19923;-72
2023/03/03 02:02:26;;;;;;;13.40;7.50;;;7.90;69.70;;;;;;7404760;19;19945;-71
2023/03/03 02:04:52;;;;;;;14.00;8.57;;;7.90;69.50;;;;;;7406196;19;20917;-72
2023/03/03 02:07:19;;;;;;;16.42;9.05;;;7.80;69.90;;;;;;7381952;19;19976;-72
2023/03/03 02:09:56;;;;;;;13.00;7.75;;;7.80;70.10;;;;;;7354594;19;19914;-71
2023/03/03 02:12:36;;;;;;;16.70;8.18;;;7.80;70.30;;;;;;7404867;19;19958;-72
2023/03/03 02:15:22;;;;;;;13.30;6.72;;;7.80;70.30;;;;;;7407093;19;19919;-72
2023/03/03 02:17:52;;;;;;;15.23;8.05;;;7.70;70.30;;;;;;7405904;19;19922;-72
2023/03/03 02:20:27;;;;;;;15.63;8.48;;;7.70;70.50;;;;;;7403604;19;19921;-71
2023/03/03 02:23:02;;;;;;;14.48;7.93;;;7.60;70.50;;;;;;7406722;19;19915;-72
2023/03/03 02:25:38;;;;;;;14.52;7.68;;;7.70;70.80;;;;;;7406457;19;20244;-72
2023/03/03 02:28:03;;;;;;;14.25;8.32;;;7.70;70.60;;;;;;7400870;19;19922;-72
2023/03/03 02:30:29;;;;;;;15.73;7.65;;;7.70;70.60;;;;;;7375366;19;19918;-72
2023/03/03 02:32:55;;;;;;;16.13;7.60;;;7.60;70.50;;;;;;7406130;19;20335;-72
2023/03/03 02:35:31;;;;;;;15.07;7.82;;;7.60;70.90;;;;;;7405856;19;19931;-72
2023/03/03 02:38:20;;;;;;;16.90;8.40;;;7.50;71.20;;;;;;7407517;19;19954;-72
2023/03/03 02:41:25;;;;;;;12.90;6.43;;;7.40;71.60;;;;;;7396841;19;19911;-72
2023/03/03 02:44:05;;;;;;;16.60;8.30;;;7.50;71.90;;;;;;7405847;19;19923;-71
2023/03/03 02:46:43;;;;;;;15.57;8.38;;;7.40;71.30;;;;;;7401388;19;19939;-71
2023/03/03 02:49:11;;;;;;;15.02;7.18;;;7.40;70.70;;;;;;7406760;19;20293;-71
2023/03/03 02:51:38;;;;;;;13.20;7.15;;;7.50;70.80;;;;;;7406892;19;19915;-71
2023/03/03 02:54:04;;;;;;;13.52;8.27;;;7.50;70.80;;;;;;7403159;19;19918;-72
2023/03/03 02:56:31;;;;;;;14.25;8.23;;;7.40;71.10;;;;;;7382046;19;19958;-72
2023/03/03 02:58:57;;;;;;;15.90;8.70;;;7.40;71.50;;;;;;7406103;19;20375;-72
2023/03/03 03:01:22;;;;;;;13.95;7.93;;;7.40;71.40;;;;;;7403589;19;19955;-72
2023/03/03 03:03:48;;;;;;;13.82;7.22;;;7.40;71.60;;;;;;7406734;19;19935;-72
2023/03/03 03:06:14;;;;;;;14.85;7.80;;;7.40;71.60;;;;;;7401547;19;19925;-71
2023/03/03 03:08:40;;;;;;;12.95;7.57;;;7.30;71.80;;;;;;7405814;19;19981;-71
2023/03/03 03:11:08;;;;;;;13.38;7.22;;;7.30;71.70;;;;;;7368688;19;19943;-72
2023/03/03 03:13:35;;;;;;;14.40;7.38;;;7.20;71.40;;;;;;7406852;19;19915;-71
2023/03/03 03:16:01;;;;;;;15.55;8.50;;;7.30;71.40;;;;;;7404211;19;19919;-71
2023/03/03 03:18:27;;;;;;;18.23;9.52;;;7.30;71.60;;;;;;7402991;19;20312;-71
2023/03/03 03:20:53;;;;;;;15.35;8.50;;;7.20;71.80;;;;;;7403588;19;19925;-71
2023/03/03 03:23:20;;;;;;;16.88;9.60;;;7.20;72.30;;;;;;7366948;19;20247;-71
2023/03/03 03:25:47;;;;;;;;;;;7.10;72.70;;;;;;7405679;19;19925;-71
2023/03/03 03:28:15;;;;;;;15.30;8.45;;;7.10;73.20;;;;;;7403397;19;19928;-71
2023/03/03 03:30:43;;;;;;;14.82;8.32;;;7.10;73.50;;;;;;7405259;19;19926;-71
2023/03/03 03:33:09;;;;;;;16.08;8.45;;;7.10;73.40;;;;;;7401776;19;19919;-71
2023/03/03 03:35:36;;;;;;;16.13;9.35;;;7.10;73.50;;;;;;7406321;19;19935;-72
2023/03/03 03:38:02;;;;;;;15.68;8.55;;;7.10;73.90;;;;;;7402504;19;19955;-70
2023/03/03 03:40:28;;;;;;;16.13;8.65;;;7.10;74.00;;;;;;7404955;19;19923;-71
2023/03/03 03:42:54;;;;;;;15.45;8.75;;;7.00;73.90;;;;;;7402061;19;20669;-70
2023/03/03 03:45:22;;;;;;;17.20;8.77;;;7.10;74.20;;;;;;7403695;19;20320;-71
2023/03/03 03:47:49;;;;;;;;;;;7.00;74.30;;;;;;7403234;19;19918;-71
2023/03/03 03:50:14;;;;;;;17.75;8.25;;;7.00;74.50;;;;;;7402790;19;20278;-71
2023/03/03 03:52:42;;;;;;;16.40;8.63;;;7.00;74.40;;;;;;7401919;19;19923;-71
2023/03/03 03:55:08;;;;;;;16.98;8.93;;;7.00;74.50;;;;;;7398822;19;19922;-72
2023/03/03 03:57:34;;;;;;;15.82;8.43;;;6.90;74.40;;;;;;7401238;19;19922;-71
2023/03/03 04:00:00;;;;;;;14.50;8.48;;;7.00;74.40;;;;;;7403589;19;20610;-71
2023/03/03 04:02:26;;;;;;;17.70;7.20;;;7.10;74.60;;;;;;7403643;19;19907;-71
2023/03/03 04:04:52;;;;;;;21.30;9.73;;;7.20;73.90;;;;;;7402006;19;19918;-72
2023/03/03 04:07:18;;;;;;;16.25;8.88;;;7.20;73.50;;;;;;7401889;19;19991;-71
2023/03/03 04:09:43;;;;;;;17.20;8.20;;;7.20;73.40;;;;;;7403207;19;19922;-71
2023/03/03 04:12:09;;;;;;;13.18;7.65;;;7.20;73.30;;;;;;7399733;19;20769;-71
2023/03/03 04:14:35;;;;;;;16.63;8.63;;;7.30;73.50;;;;;;7404531;19;19910;-72
2023/03/03 04:17:01;;;;;;;16.58;9.25;;;7.20;73.60;;;;;;7382814;19;20000;-71
2023/03/03 04:19:27;;;;;;;12.73;7.63;;;7.30;74.10;;;;;;7402595;19;19918;-72
2023/03/03 04:21:53;;;;;;;16.25;8.80;;;7.20;73.70;;;;;;7401659;19;20779;-72
2023/03/03 04:24:19;;;;;;;12.75;7.30;;;7.20;73.70;;;;;;7399616;19;19935;-72
2023/03/03 04:26:46;;;;;;;15.82;8.75;;;7.30;73.70;;;;;;7400288;19;19947;-71
2023/03/03 04:29:12;;;;;;;14.13;8.77;;;7.20;73.80;;;;;;7400689;19;19918;-71
2023/03/03 04:31:39;;;;;;;13.73;7.45;;;7.20;73.70;;;;;;7403826;19;19938;-71
2023/03/03 04:34:05;;;;;;;18.23;9.70;;;7.30;73.40;;;;;;7398515;19;20371;-71
2023/03/03 04:36:30;;;;;;;14.27;8.73;;;7.30;73.40;;;;;;7401830;19;19914;-71
2023/03/03 04:38:56;;;;;;;14.13;8.48;;;7.30;73.50;;;;;;7402551;19;19923;-71
2023/03/03 04:41:22;;;;;;;16.80;9.23;;;7.30;73.50;;;;;;7402080;19;19939;-72
2023/03/03 04:43:48;;;;;;;17.10;7.75;;;7.30;73.20;;;;;;7399617;19;20340;-72
2023/03/03 04:46:14;;;;;;;15.57;9.05;;;7.30;73.10;;;;;;7400216;19;19926;-72
2023/03/03 04:48:40;;;;;;;14.25;7.97;;;7.30;73.20;;;;;;7401561;19;19918;-71
2023/03/03 04:51:05;;;;;;;13.02;8.10;;;7.40;73.00;;;;;;7398886;19;19978;-72
2023/03/03 04:53:31;;;;;;;15.02;8.88;;;7.30;73.10;;;;;;7403623;19;20331;-71
2023/03/03 04:55:57;;;;;;;14.18;8.27;;;7.20;73.60;;;;;;7400128;19;19922;-70
2023/03/03 04:58:23;;;;;;;14.52;8.68;;;7.20;74.00;;;;;;7401148;19;19918;-72
2023/03/03 05:00:56;;;;;;;14.98;8.38;;;7.10;74.20;;;;;;7399875;19;20000;-71
2023/03/03 05:03:22;;;;;;;15.82;9.02;;;7.10;74.30;;;;;;7399069;19;19940;-71
2023/03/03 05:05:48;;;;;;;17.42;9.38;;;7.10;74.40;;;;;;7400976;19;19948;-72
2023/03/03 05:08:14;;;;;;;15.90;9.00;;;7.00;74.40;;;;;;7396377;19;19911;-71
2023/03/03 05:10:40;;;;;;;16.73;9.63;;;6.90;74.50;;;;;;7401124;19;20351;-72
2023/03/03 05:13:07;;;;;;;15.57;9.02;;;6.70;74.80;;;;;;7399575;19;19907;-73
2023/03/03 05:15:33;;;;;;;15.23;8.73;;;6.70;75.50;;;;;;7400268;19;19914;-72
2023/03/03 05:17:58;;;;;;;16.48;9.55;;;6.70;75.90;;;;;;7398517;19;19954;-71
2023/03/03 05:20:24;;;;;;;15.07;8.85;;;6.60;76.20;;;;;;7401816;19;19922;-72
2023/03/03 05:22:51;;;;;;;15.45;9.55;;;6.60;76.50;;;;;;7401165;19;19939;-71
2023/03/03 05:25:17;;;;;;;14.93;8.73;;;6.40;76.60;;;;;;7398823;19;19919;-72
2023/03/03 05:27:44;;;;;;;16.13;9.55;;;6.40;77.30;;;;;;7400111;19;20303;-71
2023/03/03 05:30:10;;;;;;;15.05;8.73;;;6.20;77.70;;;;;;7368493;19;20307;-71
2023/03/03 05:32:36;;;;;;;15.40;9.27;;;6.10;78.30;;;;;;7401934;19;19914;-72
2023/03/03 05:35:03;;;;;;;19.13;9.18;;;6.00;78.70;;;;;;7404068;19;20431;-72
2023/03/03 05:37:29;;;;;;;21.27;9.80;;;6.00;79.30;;;;;;7406845;19;19922;-71
2023/03/03 05:39:55;;;;;;;16.27;8.75;;;6.00;78.70;;;;;;7407496;19;20320;-71
2023/03/03 05:42:21;;;;;;;17.35;10.05;;;6.00;79.10;;;;;;7406124;19;19926;-72
2023/03/03 05:44:47;;;;;;;18.52;9.25;;;6.00;79.20;;;;;;7407418;19;19915;-72
2023/03/03 05:47:13;;;;;;;18.23;9.18;;;6.00;79.10;;;;;;7405989;19;19919;-72
2023/03/03 05:49:39;;;;;;;17.75;9.88;;;6.00;79.20;;;;;;7407547;19;19918;-72
2023/03/03 05:52:05;;;;;;;17.20;9.77;;;6.10;79.20;;;;;;7406513;19;20349;-72
2023/03/03 05:54:31;;;;;;;16.88;8.05;;;6.30;78.30;;;;;;7408106;19;19914;-71
2023/03/03 05:56:57;;;;;;;18.33;9.65;;;6.20;77.90;;;;;;7402483;19;19914;-75
2023/03/03 05:59:24;;;;;;;16.58;9.95;;;6.30;77.50;;;;;;7405635;19;19931;-72
2023/03/03 06:01:50;;;;;;;17.50;10.18;;;6.30;77.80;;;;;;7405494;19;19922;-71
2023/03/03 06:04:15;;;;;;;19.25;11.02;;;6.20;78.10;;;;;;7404435;19;19922;-71
2023/03/03 06:06:41;;;;;;;16.70;9.68;;;6.20;78.60;;;;;;7407029;19;20351;-72
2023/03/03 06:09:07;;;;;;;20.35;10.05;;;6.20;78.70;;;;;;7403555;19;19926;-72
2023/03/03 06:11:33;;;;;;;20.38;10.50;;;6.10;78.50;;;;;;7406091;19;20239;-71
2023/03/03 06:13:59;;;;;;;17.05;10.25;;;6.00;78.90;;;;;;7375883;19;19923;-72
2023/03/03 06:16:25;;;;;;;20.05;10.13;;;6.00;78.70;;;;;;7405267;19;19919;-72
2023/03/03 06:18:51;;;;;;;18.05;9.82;;;6.00;78.30;;;;;;7407899;19;19925;-71
2023/03/03 06:21:16;;;;;;;16.95;9.52;;;6.20;78.10;;;;;;7399067;19;19919;-72
2023/03/03 06:23:42;;;;;;;20.10;10.23;;;6.30;77.20;;;;;;7405248;19;19933;-71
2023/03/03 06:26:08;;;;;;;19.15;10.90;;;6.30;77.00;;;;;;7404451;19;19923;-71
2023/03/03 06:28:34;;;;;;;16.75;10.07;;;6.20;77.50;;;;;;7405722;19;19943;-73
2023/03/03 06:31:02;;;;;;;17.65;10.07;;;6.10;77.70;;;;;;7405463;19;19919;-71
2023/03/03 06:33:27;;;;;;;18.33;10.70;;;6.00;78.30;;;;;;7405849;19;19942;-72
2023/03/03 06:35:53;;;;;;;21.58;10.55;;;5.90;78.50;;;;;;7404475;19;19934;-72
2023/03/03 06:38:20;;;;;;;19.52;10.43;;;6.00;78.70;;;;;;7405255;19;19911;-72
2023/03/03 06:40:46;;;;;;;18.67;10.25;;;6.00;78.30;;;;;;7407009;19;19926;-71
2023/03/03 06:43:13;;;;;;;20.02;10.70;;;6.00;78.40;;;;;;7403354;19;19926;-71
2023/03/03 06:45:39;;;;;;;18.98;10.57;;;6.30;77.60;;;;;;7405695;19;19978;-72
2023/03/03 06:48:05;;;;;;;20.45;11.35;;;6.40;77.10;;;;;;7404915;19;20466;-71
2023/03/03 06:50:31;;;;;;;18.80;11.50;;;6.40;77.30;;;;;;7408849;19;20366;-72
2023/03/03 06:53:04;;;;;;;19.38;10.82;;;6.60;76.80;;;;;;7406075;19;19923;-71
2023/03/03 06:55:30;;;;;;;19.10;10.57;;;6.60;76.30;;;;;;7406139;19;19982;-72
2023/03/03 06:57:56;;;;;;;21.67;10.63;;;6.70;75.50;;;;;;7406447;19;19935;-70
2023/03/03 07:00:26;;;;;;;18.30;10.68;;;6.80;75.20;;;;;;7406381;19;19946;-72
2023/03/03 07:03:03;;;;;;;18.60;10.82;;;6.90;75.10;;;;;;7405597;19;19923;-71
2023/03/03 07:05:29;;;;;;;21.42;11.40;;;6.80;75.20;;;;;;7407045;19;19915;-71
2023/03/03 07:07:56;;;;;;;19.27;10.98;;;6.90;75.10;;;;;;7407273;19;19919;-72
2023/03/03 07:10:28;;;;;;;19.95;11.38;;;7.00;74.50;;;;;;7406714;19;20342;-71
2023/03/03 07:12:57;;;;;;;24.38;12.80;;;7.00;74.70;;;;;;7401600;19;19926;-73
2023/03/03 07:15:33;;;;;;;21.63;11.55;;;7.00;74.80;;;;;;7402546;19;20368;-72
2023/03/03 07:17:59;;;;;;;23.33;11.13;;;7.00;74.60;;;;;;7404203;19;19947;-72
2023/03/03 07:20:38;;;;;;;18.13;11.27;;;7.10;74.60;;;;;;7404339;19;19918;-73
2023/03/03 07:23:41;;;;;;;19.67;11.25;;;7.20;74.00;;;;;;7404959;19;20331;-73
2023/03/03 07:26:29;;;;;;;19.10;10.80;;;7.20;73.70;;;;;;7403979;19;19930;-72
2023/03/03 07:29:20;;;;;;;20.23;11.25;;;7.30;73.60;;;;;;7402333;19;19915;-72
2023/03/03 07:31:48;;;;;;;22.00;11.65;;;7.40;73.50;;;;;;7403338;19;19983;-71
2023/03/03 07:34:22;;;;;;;22.67;10.73;;;7.50;73.20;;;;;;7403896;19;19922;-71
2023/03/03 07:36:52;;;;;;;18.35;11.00;;;7.60;72.70;;;;;;7371287;19;20364;-73
2023/03/03 07:39:35;;;;;;;22.08;11.18;;;7.80;71.70;;;;;;7400408;19;19911;-72
2023/03/03 07:42:21;;;;;;;20.17;12.27;;;7.80;71.50;;;;;;7398082;19;19922;-73
2023/03/03 07:44:51;;;;;;;18.35;10.45;;;8.00;71.00;;;;;;7350628;19;19919;-73
2023/03/03 07:47:37;;;;;;;23.20;12.13;;;8.00;71.00;;;;;;7373797;19;20028;-73
2023/03/03 07:50:19;;;;;;;24.85;12.25;;;8.10;71.90;;;;;;7404525;19;19914;-73
2023/03/03 07:52:57;;;;;;;22.67;11.88;;;8.10;72.40;;;;;;7405664;19;19918;-73
2023/03/03 07:55:32;;;;;;;20.70;11.63;;;8.10;72.50;;;;;;7401994;19;19930;-73
2023/03/03 07:58:19;;;;;;;21.30;11.80;;;8.20;72.50;;;;;;7401780;19;20019;-73
2023/03/03 08:01:11;;;;;;;23.33;12.20;;;8.20;72.40;;;;;;7397770;19;19931;-74
2023/03/03 08:03:37;;;;;;;18.92;11.32;;;8.30;70.50;;;;;;7395061;19;20472;-73
2023/03/03 08:06:52;;;;;;;19.83;11.18;;;8.50;70.10;;;;;;7396490;19;19970;-74
2023/03/03 08:09:34;;;;;;;18.60;10.25;;;8.60;69.60;;;;;;7395256;19;19930;-74
2023/03/03 08:12:08;;;;;;;17.48;10.23;;;8.80;68.50;;;;;;7392299;19;20311;-73
2023/03/03 08:14:36;;;;;;;20.58;10.85;;;8.80;68.30;;;;;;7393221;19;19982;-73
2023/03/03 08:17:31;;;;;;;20.35;10.82;;;8.90;67.90;;;;;;7394825;19;20763;-73
2023/03/03 08:19:57;;;;;;;24.42;11.82;;;8.90;68.00;;;;;;7398924;19;20328;-74
2023/03/03 08:22:37;;;;;;;18.90;11.35;;;9.00;69.30;;;;;;7400635;19;19978;-74
2023/03/03 08:25:03;;;;;;;;;;;9.00;69.30;;;;;;7398372;19;19927;-73
2023/03/03 08:27:29;;;;;;;19.27;10.85;;;9.00;68.70;;;;;;7359926;19;19915;-75
2023/03/03 08:29:55;;;;;;;18.35;10.65;;;9.10;68.50;;;;;;7404752;19;19962;-74
2023/03/03 08:32:20;;;;;;;19.60;10.63;;;9.20;68.30;;;;;;7392257;19;20543;-74
2023/03/03 08:34:46;;;;;;;18.83;10.88;;;9.30;68.20;;;;;;7401610;19;19918;-76
2023/03/03 08:37:12;;;;;;;16.15;10.20;;;9.40;68.30;;;;;;7400285;19;20240;-74
2023/03/03 08:39:38;;;;;;;17.70;10.88;;;10.00;68.10;;;;;;7378198;19;19915;-76
2023/03/03 08:42:04;;;;;;;18.08;10.98;;;12.50;65.60;;;;;;7393240;19;19918;-74
2023/03/03 08:44:29;;;;;;;17.42;9.90;;;13.90;61.10;;;;;;7396917;19;19910;-73
2023/03/03 08:46:55;;;;;;;17.23;10.77;;;15.10;57.80;;;;;;7392243;19;19938;-73
2023/03/03 08:49:21;;;;;;;17.20;11.55;;;16.00;56.80;;;;;;7393626;19;21650;-74
2023/03/03 08:51:47;;;;;;;19.55;11.43;;;16.70;55.20;;;;;;7393678;19;19926;-72
2023/03/03 08:54:15;;;;;;;16.80;10.48;;;17.20;54.50;;;;;;7366954;19;21655;-74
2023/03/03 08:56:40;;;;;;;17.77;11.63;;;17.70;52.50;;;;;;7396861;19;19930;-75
2023/03/03 08:59:06;;;;;;;18.30;12.55;;;18.10;52.40;;;;;;7359338;19;19919;-74
2023/03/03 09:01:33;;;;;;;18.38;12.27;;;18.00;51.90;;;;;;7396586;19;19974;-74
2023/03/03 09:03:59;;;;;;;21.33;12.00;;;18.20;52.40;;;;;;7398019;19;19923;-75
2023/03/03 09:06:25;;;;;;;19.40;13.45;;;18.70;51.90;;;;;;7389357;19;19914;-75
2023/03/03 09:08:51;;;;;;;19.88;12.15;;;19.40;50.70;;;;;;7393330;19;19969;-74
2023/03/03 09:11:26;;;;;;;18.67;13.32;;;19.50;50.10;;;;;;7401483;19;19910;-74
2023/03/03 09:14:16;;;;;;;17.48;13.27;;;19.50;50.30;;;;;;7395641;19;19918;-75
2023/03/03 09:16:51;;;;;;;17.13;12.95;;;19.80;49.60;;;;;;7402083;19;19921;-74
2023/03/03 09:19:20;;;;;;;18.35;13.82;;;19.70;49.90;;;;;;7393983;19;19974;-74
2023/03/03 09:21:46;;;;;;;17.80;13.55;;;19.80;49.50;;;;;;7402459;19;19922;-73
2023/03/03 09:24:24;;;;;;;18.77;13.75;;;19.80;49.10;;;;;;7397163;19;20373;-74
2023/03/03 09:26:52;;;;;;;17.15;11.80;;;20.00;49.30;;;;;;7400959;19;19919;-73
2023/03/03 09:29:29;;;;;;;19.02;13.38;;;20.30;48.70;;;;;;7405361;19;20228;-74
2023/03/03 09:32:00;;;;;;;20.63;14.20;;;20.20;48.20;;;;;;7406276;19;20389;-74
2023/03/03 09:34:35;;;;;;;16.50;12.63;;;20.10;48.00;;;;;;7401828;19;19915;-74
2023/03/03 09:37:33;;;;;;;17.95;12.88;;;19.80;47.90;;;;;;7400219;19;21500;-75
2023/03/03 09:39:59;;;;;;;17.55;13.02;;;19.80;47.50;;;;;;7393299;19;19919;-74
2023/03/03 09:42:35;;;;;;;20.25;13.05;;;19.70;47.70;;;;;;7399930;19;19990;-74
2023/03/03 09:45:21;;;;;;;16.10;11.82;;;19.70;47.70;;;;;;7399053;19;19974;-74
2023/03/03 09:47:56;;;;;;;16.75;12.43;;;19.00;48.30;;;;;;7393021;19;20346;-75
2023/03/03 09:50:51;;;;;;;18.17;13.02;;;18.00;49.50;;;;;;7326998;19;20822;-74
2023/03/03 09:53:52;;;;;;;16.85;13.05;;;17.80;50.00;;;;;;7396086;19;19918;-74
2023/03/03 09:56:29;;;;;;;16.38;12.38;;;17.00;51.00;;;;;;7404562;19;19921;-74
2023/03/03 09:59:25;;;;;;;18.63;13.57;;;16.30;51.70;;;;;;7356938;19;20655;-74
2023/03/03 10:02:11;;;;;;;18.33;13.27;;;15.90;52.30;;;;;;7391680;19;19918;-74
2023/03/03 10:04:53;;;;;;;22.60;13.30;;;15.70;53.00;;;;;;7396923;19;20250;-73
2023/03/03 10:07:27;;;;;;;18.50;13.95;;;15.40;53.10;;;;;;7398592;19;19918;-74
2023/03/03 10:10:31;;;;;;;19.23;12.85;;;15.40;53.70;;;;;;7408470;19;20347;-73
2023/03/03 10:13:11;;;;;;;19.25;13.60;;;15.60;53.60;;;;;;7399421;19;19910;-74
2023/03/03 10:15:52;;;;;;;17.77;12.65;;;15.70;53.60;;;;;;7399588;19;19926;-75
2023/03/03 10:18:55;;;;;;;18.90;12.52;;;15.90;53.30;;;;;;7394369;19;19938;-73
2023/03/03 10:21:33;;;;;;;16.50;12.52;;;16.00;53.10;;;;;;7395078;19;20667;-74
2023/03/03 10:24:01;;;;;;;19.52;12.75;;;16.20;52.90;;;;;;7396488;19;19922;-73
2023/03/03 10:26:31;;;;;;;20.92;14.63;;;16.60;52.40;;;;;;7359166;19;19911;-75
2023/03/03 10:29:22;;;;;;;22.38;12.70;;;16.70;52.10;;;;;;7400364;19;19925;-73
2023/03/03 10:31:52;;;;;;;19.10;13.38;;;16.30;52.00;;;;;;7392990;19;19938;-74
2023/03/03 10:34:37;;;;;;;20.70;13.68;;;16.20;52.30;;;;;;7392204;19;19910;-74
2023/03/03 10:37:16;;;;;;;19.45;13.65;;;16.20;52.00;;;;;;7395387;19;19963;-74
2023/03/03 10:39:42;;;;;;;32.60;19.73;;;16.20;51.90;;;;;;7400738;19;19926;-75
2023/03/03 10:42:39;;;;;;;21.00;14.27;;;15.70;52.70;;;;;;7402970;19;20273;-73
2023/03/03 10:45:23;;;;;;;22.02;15.68;;;16.00;52.30;;;;;;7351940;19;19918;-73
2023/03/03 10:48:07;;;;;;;20.35;14.93;;;16.10;51.60;;;;;;7385727;19;20013;-73
2023/03/03 10:50:59;;;;;;;25.33;15.65;;;16.20;51.50;;;;;;7391963;19;19911;-74
2023/03/03 10:53:30;;;;;;;20.23;14.55;;;15.40;52.20;;;;;;7397061;19;20358;-74
2023/03/03 10:56:33;;;;;;;20.17;15.48;;;16.40;51.90;;;;;;7399622;19;19915;-74
2023/03/03 10:59:21;;;;;;;23.70;15.52;;;17.10;51.50;;;;;;7394389;19;19918;-73
2023/03/03 11:01:58;;;;;;;22.67;15.55;;;17.90;50.50;;;;;;7372557;19;19915;-74
2023/03/03 11:05:01;;;;;;;20.70;14.88;;;17.20;49.80;;;;;;7377496;19;19962;-74
2023/03/03 11:07:46;;;;;;;27.38;16.30;;;17.80;49.60;;;;;;7397990;19;19922;-73
2023/03/03 11:10:18;;;;;;;23.88;15.35;;;17.30;50.10;;;;;;7398244;19;19919;-73
2023/03/03 11:13:09;;;;;;;24.00;16.73;;;17.90;50.70;;;;;;7401331;19;19922;-74
2023/03/03 11:16:04;;;;;;;21.55;16.42;;;18.00;50.30;;;;;;7394914;19;19919;-74
2023/03/03 11:18:53;;;;;;;23.55;16.70;;;18.80;49.30;;;;;;7401534;19;19939;-74
2023/03/03 11:21:33;;;;;;;23.60;16.35;;;18.80;49.60;;;;;;7398284;19;20679;-73
2023/03/03 11:24:28;;;;;;;22.55;17.58;;;19.50;49.50;;;;;;7394236;19;20272;-74
2023/03/03 11:27:25;;;;;;;24.17;17.10;;;19.70;48.90;;;;;;7399453;19;19957;-76
2023/03/03 11:30:01;;;;;;;27.80;18.65;;;19.70;48.90;;;;;;7402743;19;19921;-74
2023/03/03 11:32:46;;;;;;;26.10;18.55;;;19.80;48.80;;;;;;7386506;19;19915;-74
2023/03/03 11:35:27;;;;;;;26.63;18.65;;;20.00;48.40;;;;;;7393390;19;19910;-74
2023/03/03 11:38:20;;;;;;;29.23;18.60;;;20.00;48.20;;;;;;7396225;19;19918;-74
2023/03/03 11:41:17;;;;;;;24.58;18.63;;;20.20;48.70;;;;;;7394092;19;19922;-76
2023/03/03 11:43:55;;;;;;;24.05;18.23;;;19.80;48.90;;;;;;7395565;19;19975;-73
2023/03/03 11:46:26;;;;;;;26.42;19.70;;;20.40;49.20;;;;;;7393707;19;19914;-73
2023/03/03 11:49:08;;;;;;;28.08;20.55;;;20.70;48.80;;;;;;7385436;19;19918;-74
2023/03/03 11:51:49;;;;;;;29.13;20.35;;;20.30;48.80;;;;;;7398336;19;19922;-74
2023/03/03 11:54:38;;;;;;;26.60;19.55;;;20.70;48.80;;;;;;7402811;19;19922;-73
2023/03/03 11:57:34;;;;;;;27.55;21.45;;;21.00;48.70;;;;;;7396342;19;19919;-74
2023/03/03 12:00:15;;;;;;;28.23;20.95;;;20.90;48.30;;;;;;7398874;19;20352;-74
2023/03/03 12:03:09;;;;;;;30.45;19.95;;;20.40;48.40;;;;;;7393517;19;19926;-74
2023/03/03 12:05:54;;;;;;;28.20;19.85;;;20.10;48.80;;;;;;7391134;19;19933;-74
2023/03/03 12:08:40;;;;;;;26.38;20.17;;;20.60;48.90;;;;;;7377807;19;19915;-73
2023/03/03 12:11:23;;;;;;;27.00;19.73;;;20.10;49.40;;;;;;7391369;19;19917;-74
2023/03/03 12:14:15;;;;;;;31.67;20.23;;;20.00;49.20;;;;;;7389748;19;19970;-74
2023/03/03 12:16:55;;;;;;;26.60;20.77;;;19.60;49.80;;;;;;7394309;19;19919;-73
2023/03/03 12:19:30;;;;;;;29.23;21.83;;;20.00;49.80;;;;;;7402909;19;19922;-73
2023/03/03 12:21:56;;;;;;;25.40;21.42;;;19.50;50.00;;;;;;7402793;19;20342;-72
2023/03/03 12:24:53;;;;;;;26.65;19.83;;;19.50;50.20;;;;;;7400834;19;19931;-73
2023/03/03 12:28:04;;;;;;;28.63;19.13;;;18.90;50.30;;;;;;7391027;19;19914;-72
2023/03/03 12:31:00;;;;;;;25.00;19.77;;;19.10;52.10;;;;;;7390681;19;19938;-75
2023/03/03 12:33:28;;;;;;;27.20;19.15;;;19.60;50.10;;;;;;7394520;19;19920;-76
2023/03/03 12:36:21;;;;;;;26.35;19.77;;;19.90;50.20;;;;;;7405122;19;19929;-75
2023/03/03 12:39:04;;;;;;;27.15;20.00;;;19.10;50.30;;;;;;7403531;19;19919;-76
2023/03/03 12:41:46;;;;;;;27.42;20.35;;;18.20;51.00;;;;;;7406716;19;19941;-76
2023/03/03 12:44:40;;;;;;;27.25;19.67;;;18.50;51.60;;;;;;7404664;19;19933;-76
2023/03/03 12:47:29;;;;;;;24.48;18.90;;;17.80;51.70;;;;;;7410158;19;19919;-74
2023/03/03 12:50:20;;;;;;;23.98;19.05;;;18.40;51.30;;;;;;7412012;19;19935;-75
2023/03/03 12:53:05;;;;;;;27.77;19.88;;;17.70;52.10;;;;;;7388026;19;20263;-76
2023/03/03 12:55:47;;;;;;;25.38;19.77;;;18.10;52.40;;;;;;7406108;19;19910;-75
2023/03/03 12:58:24;;;;;;;29.45;20.45;;;17.00;53.30;;;;;;7400200;19;19914;-73
2023/03/03 13:00:56;;;;;;;33.22;20.45;;;18.10;53.40;;;;;;7399657;19;19914;-74
2023/03/03 13:03:42;;;;;;;28.08;19.55;;;16.80;54.30;;;;;;7405969;19;20255;-73
2023/03/03 13:06:35;;;;;;;25.02;18.08;;;17.30;54.10;;;;;;7384452;19;20305;-73
2023/03/03 13:09:07;;;;;;;28.80;18.92;;;18.10;53.80;;;;;;7409132;19;20304;-74
2023/03/03 13:11:55;;;;;;;27.48;20.65;;;18.60;52.80;;;;;;7409853;19;20375;-73